createdAt,value
2019-04-03T00:01:25.262Z,61.15
2019-04-03T00:03:57.558Z,61.10
2019-04-03T00:06:30.035Z,61.21
2019-04-03T00:09:01.278Z,61.23
2019-04-03T00:11:33.721Z,61.19
2019-04-03T00:14:05.039Z,61.62
2019-04-03T00:16:36.235Z,61.87
2019-04-03T00:19:07.443Z,61.82
2019-04-03T00:21:40.655Z,61.66
2019-04-03T00:24:11.829Z,61.78
2019-04-03T00:26:43.021Z,61.86
2019-04-03T00:29:14.252Z,61.82
2019-04-03T00:31:46.551Z,61.96
2019-04-03T00:34:19.929Z,61.88
2019-04-03T00:36:52.946Z,61.85
2019-04-03T00:39:24.360Z,62.17
2019-04-03T00:41:56.092Z,62.01
2019-04-03T00:44:27.271Z,61.75
2019-04-03T00:46:58.471Z,62.18
2019-04-03T00:49:29.631Z,62.03
2019-04-03T00:52:01.845Z,62.34
2019-04-03T00:54:33.004Z,62.21
2019-04-03T00:57:04.202Z,62.44
2019-04-03T00:59:35.417Z,62.87
2019-04-03T01:02:06.645Z,62.55
2019-04-03T01:04:38.027Z,62.46
2019-04-03T01:07:09.166Z,62.51
2019-04-03T01:09:40.353Z,62.69
2019-04-03T01:12:11.458Z,62.74
2019-04-03T01:14:43.611Z,62.83
2019-04-03T01:17:15.849Z,62.67
2019-04-03T01:19:47.018Z,62.84
2019-04-03T01:22:18.245Z,63.25
2019-04-03T01:24:49.437Z,63.00
2019-04-03T01:27:20.559Z,62.97
2019-04-03T01:29:51.763Z,62.89
2019-04-03T01:32:24.068Z,63.23
2019-04-03T01:34:55.110Z,63.24
2019-04-03T01:37:27.289Z,63.48
2019-04-03T01:39:58.490Z,63.42
2019-04-03T01:42:29.605Z,63.66
2019-04-03T01:45:00.847Z,63.57
2019-04-03T01:47:32.094Z,63.54
2019-04-03T01:50:03.253Z,63.67
2019-04-03T01:52:35.408Z,63.93
2019-04-03T01:55:06.725Z,63.99
2019-04-03T01:57:37.939Z,63.92
2019-04-03T02:00:09.179Z,63.79
2019-04-03T02:02:40.450Z,63.85
2019-04-03T02:05:13.297Z,63.68
2019-04-03T02:07:45.138Z,64.30
2019-04-03T02:10:18.920Z,64.34
2019-04-03T02:12:52.209Z,64.29
2019-04-03T02:15:23.417Z,64.15
2019-04-03T02:17:55.287Z,64.12
2019-04-03T02:20:27.227Z,64.17
2019-04-03T02:23:00.401Z,64.34
2019-04-03T02:25:32.211Z,64.28
2019-04-03T02:28:04.530Z,64.45
2019-04-03T02:30:36.823Z,64.16
2019-04-03T02:33:08.032Z,64.12
2019-04-03T02:35:40.427Z,64.28
2019-04-03T02:38:12.209Z,64.52
2019-04-03T02:40:43.410Z,64.64
2019-04-03T02:43:15.337Z,64.66
2019-04-03T02:45:47.054Z,64.74
2019-04-03T02:48:19.346Z,64.61
2019-04-03T02:50:51.681Z,64.90
2019-04-03T02:53:22.742Z,64.82
2019-04-03T02:55:53.865Z,64.81
2019-04-03T02:58:25.029Z,64.39
2019-04-03T03:00:56.664Z,64.42
2019-04-03T03:03:28.127Z,64.52
2019-04-03T03:06:01.054Z,64.78
2019-04-03T03:08:32.405Z,64.91
2019-04-03T03:11:04.704Z,65.00
2019-04-03T03:13:35.881Z,64.83
2019-04-03T03:16:07.093Z,64.48
2019-04-03T03:18:38.470Z,64.10
2019-04-03T03:21:12.287Z,64.20
2019-04-03T03:23:42.649Z,64.23
2019-04-03T03:26:13.840Z,64.34
2019-04-03T03:28:46.892Z,64.32
2019-04-03T03:31:19.127Z,64.04
2019-04-03T03:33:50.924Z,64.05
2019-04-03T03:36:25.616Z,64.22
2019-04-03T03:38:55.504Z,63.62
2019-04-03T03:41:26.654Z,64.05
2019-04-03T03:43:57.894Z,63.80
2019-04-03T03:46:29.538Z,63.42
2019-04-03T03:49:00.852Z,63.32
2019-04-03T03:51:32.962Z,63.19
2019-04-03T03:54:04.584Z,62.87
2019-04-03T03:56:37.484Z,62.25
2019-04-03T03:59:08.867Z,61.96
2019-04-03T04:01:40.099Z,61.28
2019-04-03T04:04:14.259Z,59.65
2019-04-03T04:06:44.330Z,58.90
2019-04-03T04:09:17.840Z,57.73
2019-04-03T04:11:48.647Z,56.63
2019-04-03T04:14:22.849Z,56.39
2019-04-03T04:16:52.869Z,54.42
2019-04-03T04:19:28.725Z,51.80
2019-04-03T04:21:57.484Z,50.22
2019-04-03T04:24:29.080Z,49.60
2019-04-03T04:27:00.877Z,46.70
2019-04-03T04:29:33.241Z,46.74
2019-04-03T04:32:04.652Z,44.98
2019-04-03T04:34:35.891Z,45.34
2019-04-03T04:37:06.989Z,44.56
2019-04-03T04:39:38.239Z,43.96
2019-04-03T04:42:11.944Z,43.73
2019-04-03T04:44:43.492Z,42.14
2019-04-03T04:47:15.661Z,40.99
2019-04-03T04:49:47.067Z,41.51
2019-04-03T04:52:18.374Z,40.67
2019-04-03T04:54:49.681Z,39.82
2019-04-03T04:57:20.996Z,38.87
2019-04-03T04:59:52.315Z,38.76
2019-04-03T05:02:23.592Z,38.24
2019-04-03T05:04:55.870Z,38.65
2019-04-03T05:07:30.312Z,37.75
2019-04-03T05:10:00.816Z,36.98
2019-04-03T05:12:32.140Z,37.38
2019-04-03T05:15:05.237Z,36.46
2019-04-03T05:17:36.575Z,36.96
2019-04-03T05:20:07.892Z,37.80
2019-04-03T05:22:39.110Z,37.93
2019-04-03T05:25:10.465Z,36.08
2019-04-03T05:27:41.904Z,35.02
2019-04-03T05:30:16.345Z,36.33
2019-04-03T05:32:47.723Z,37.49
2019-04-03T05:35:21.296Z,35.75
2019-04-03T05:37:52.563Z,34.73
2019-04-03T05:40:25.873Z,34.90
2019-04-03T05:42:58.119Z,34.60
2019-04-03T05:45:29.849Z,32.45
2019-04-03T05:48:02.319Z,34.52
2019-04-03T05:50:36.158Z,33.78
2019-04-03T05:53:06.997Z,33.50
2019-04-03T05:55:41.086Z,32.17
2019-04-03T05:58:15.278Z,34.24
2019-04-03T06:00:47.005Z,32.74
2019-04-03T06:03:19.510Z,33.53
2019-04-03T06:05:50.848Z,31.56
2019-04-03T06:08:22.617Z,32.34
2019-04-03T06:10:54.049Z,32.46
2019-04-03T06:13:25.409Z,30.95
2019-04-03T06:15:57.001Z,32.73
2019-04-03T06:18:31.585Z,32.86
2019-04-03T06:21:02.313Z,33.08
2019-04-03T06:23:36.008Z,32.32
2019-04-03T06:26:08.982Z,31.70
2019-04-03T06:28:42.556Z,29.68
2019-04-03T06:31:14.291Z,29.26
2019-04-03T06:33:46.540Z,28.22
2019-04-03T06:36:18.133Z,28.42
2019-04-03T06:38:49.981Z,28.57
2019-04-03T06:41:21.602Z,27.47
2019-04-03T06:43:55.822Z,27.54
2019-04-03T06:46:29.177Z,25.61
2019-04-03T06:49:01.918Z,26.38
2019-04-03T06:51:33.109Z,26.37
2019-04-03T06:54:07.177Z,28.45
2019-04-03T06:56:39.989Z,26.68
2019-04-03T06:59:10.382Z,25.35
2019-04-03T07:01:41.857Z,28.50
2019-04-03T07:04:14.096Z,28.50
2019-04-03T07:06:45.720Z,28.63
2019-04-03T07:09:24.333Z,27.54
2019-04-03T07:11:51.624Z,28.81
2019-04-03T07:14:25.786Z,28.38
2019-04-03T07:17:05.197Z,30.38
2019-04-03T07:19:35.373Z,29.70
2019-04-03T07:22:06.680Z,27.32
2019-04-03T07:24:38.093Z,29.90
2019-04-03T07:27:09.618Z,30.21
2019-04-03T07:29:40.959Z,29.95
2019-04-03T07:32:13.219Z,29.75
2019-04-03T07:34:44.594Z,28.35
2019-04-03T07:37:19.973Z,26.63
2019-04-03T07:39:50.609Z,25.99
2019-04-03T07:42:24.566Z,26.87
2019-04-03T07:44:57.988Z,26.49
2019-04-03T07:47:29.332Z,28.12
2019-04-03T07:50:00.605Z,27.71
2019-04-03T07:52:32.813Z,26.92
2019-04-03T07:55:05.637Z,27.98
2019-04-03T07:57:43.155Z,30.12
2019-04-03T08:00:15.701Z,32.25
2019-04-03T08:02:48.780Z,33.67
2019-04-03T08:05:20.722Z,33.75
2019-04-03T08:07:55.918Z,33.77
2019-04-03T08:10:30.611Z,33.35
2019-04-03T08:13:01.937Z,34.01
2019-04-03T08:15:34.235Z,34.37
2019-04-03T08:18:05.484Z,35.03
2019-04-03T08:20:37.113Z,34.58
2019-04-03T08:23:08.466Z,34.55
2019-04-03T08:25:42.351Z,34.35
2019-04-03T08:28:17.939Z,34.34
2019-04-03T08:30:50.050Z,34.57
2019-04-03T08:33:26.594Z,34.48
2019-04-03T08:35:55.820Z,34.38
2019-04-03T08:38:31.023Z,33.18
2019-04-03T08:41:04.488Z,32.87
2019-04-03T08:43:36.040Z,32.53
2019-04-03T08:46:09.763Z,32.44
2019-04-03T08:48:40.723Z,32.71
2019-04-03T08:51:12.130Z,32.37
2019-04-03T08:53:43.744Z,31.79
2019-04-03T08:56:17.139Z,31.53
2019-04-03T08:58:48.443Z,32.75
2019-04-03T09:01:20.662Z,33.49
2019-04-03T09:03:52.671Z,34.25
2019-04-03T09:06:25.036Z,33.87
2019-04-03T09:08:58.179Z,33.71
2019-04-03T09:11:30.003Z,33.46
2019-04-03T09:14:02.555Z,33.68
2019-04-03T09:16:34.170Z,33.75
2019-04-03T09:19:05.449Z,33.45
2019-04-03T09:21:36.674Z,33.27
2019-04-03T09:24:08.249Z,33.81
2019-04-03T09:26:40.930Z,33.24
2019-04-03T09:29:13.825Z,32.77
2019-04-03T09:31:45.220Z,33.23
2019-04-03T09:34:16.760Z,32.08
2019-04-03T09:36:48.109Z,32.38
2019-04-03T09:39:27.297Z,32.07
2019-04-03T09:41:58.554Z,32.74
2019-04-03T09:44:29.999Z,31.58
2019-04-03T09:47:03.433Z,32.19
2019-04-03T09:49:38.212Z,32.61
2019-04-03T09:52:09.788Z,32.87
2019-04-03T09:54:41.996Z,33.18
2019-04-03T09:57:13.226Z,32.70
2019-04-03T09:59:44.551Z,32.22
2019-04-03T10:02:17.245Z,32.42
2019-04-03T10:04:50.043Z,31.37
2019-04-03T10:07:31.222Z,31.66
2019-04-03T10:10:05.371Z,31.99
2019-04-03T10:12:36.859Z,31.81
2019-04-03T10:15:09.482Z,32.40
2019-04-03T10:17:40.798Z,32.05
2019-04-03T10:20:15.031Z,32.01
2019-04-03T10:22:46.834Z,31.23
2019-04-03T10:25:19.430Z,31.95
2019-04-03T10:27:50.971Z,31.88
2019-04-03T10:30:24.468Z,31.41
2019-04-03T10:33:00.119Z,30.93
2019-04-03T10:35:32.436Z,30.32
2019-04-03T10:38:04.184Z,30.72
2019-04-03T10:40:35.600Z,30.59
2019-04-03T10:43:06.866Z,30.99
2019-04-03T10:45:41.296Z,31.52
2019-04-03T10:48:13.447Z,31.08
2019-04-03T10:50:58.094Z,31.27
2019-04-03T10:56:52.103Z,31.15
2019-04-03T10:59:25.013Z,29.52
2019-04-03T11:01:58.677Z,29.76
2019-04-03T11:04:30.104Z,28.87
2019-04-03T11:07:05.371Z,28.97
2019-04-03T11:09:36.662Z,29.70
2019-04-03T11:12:10.225Z,30.17
2019-04-03T11:14:40.810Z,30.33
2019-04-03T11:17:13.363Z,30.23
2019-04-03T11:19:45.047Z,30.72
2019-04-03T11:22:16.794Z,30.05
2019-04-03T11:24:49.238Z,29.80
2019-04-03T11:29:56.217Z,30.43
2019-04-03T11:30:53.931Z,29.93
2019-04-03T11:32:28.282Z,30.06
2019-04-03T11:35:00.118Z,30.53
2019-04-03T11:37:38.279Z,30.12
2019-04-03T11:40:11.767Z,30.05
2019-04-03T11:42:44.395Z,30.21
2019-04-03T11:45:17.086Z,30.19
2019-04-03T11:47:48.370Z,30.65
2019-04-03T11:50:19.755Z,28.53
2019-04-03T11:52:54.734Z,29.01
2019-04-03T11:55:26.107Z,29.77
2019-04-03T11:57:57.603Z,29.37
2019-04-03T12:00:36.752Z,29.18
2019-04-03T12:03:10.802Z,28.37
2019-04-03T12:05:41.632Z,27.95
2019-04-03T12:08:14.175Z,28.01
2019-04-03T12:10:46.068Z,27.97
2019-04-03T12:13:19.455Z,27.99
2019-04-03T12:15:53.212Z,28.02
2019-04-03T12:18:24.206Z,27.84
2019-04-03T12:20:56.657Z,28.56
2019-04-03T12:23:27.978Z,28.95
2019-04-03T12:25:59.439Z,29.12
2019-04-03T12:28:32.661Z,29.09
2019-04-03T12:31:05.343Z,28.50
2019-04-03T12:33:36.612Z,29.11
2019-04-03T12:36:12.613Z,28.90
2019-04-03T12:39:10.010Z,28.57
2019-04-03T12:41:43.131Z,28.61
2019-04-03T12:44:16.634Z,28.59
2019-04-03T12:46:49.298Z,28.65
2019-04-03T12:49:22.789Z,28.32
2019-04-03T12:51:56.051Z,28.38
2019-04-03T12:54:28.380Z,28.34
2019-04-03T12:57:01.534Z,28.72
2019-04-03T12:59:33.013Z,29.63
2019-04-03T13:02:04.305Z,30.00
2019-04-03T13:04:41.621Z,30.37
2019-04-03T13:07:14.474Z,30.26
2019-04-03T13:09:47.688Z,29.71
2019-04-03T13:12:30.246Z,29.71
2019-04-03T13:15:19.438Z,28.94
2019-04-03T13:17:51.052Z,29.66
2019-04-03T13:20:22.437Z,28.88
2019-04-03T13:22:55.565Z,29.44
2019-04-03T13:25:27.113Z,29.26
2019-04-03T13:27:58.631Z,28.54
2019-04-03T13:30:30.135Z,28.67
2019-04-03T13:33:05.706Z,29.46
2019-04-03T13:39:04.719Z,28.68
2019-04-03T13:41:36.326Z,28.15
2019-04-03T13:44:07.923Z,28.43
2019-04-03T13:46:39.786Z,28.43
2019-04-03T13:49:11.845Z,28.40
2019-04-03T13:51:43.298Z,29.80
2019-04-03T13:54:15.465Z,29.30
2019-04-03T13:56:46.874Z,29.36
2019-04-03T13:59:26.503Z,29.60
2019-04-03T14:01:57.893Z,30.14
2019-04-03T14:04:29.274Z,28.91
2019-04-03T14:07:30.045Z,29.18
2019-04-03T14:10:13.426Z,28.78
2019-04-03T14:12:58.879Z,30.14
2019-04-03T14:15:34.416Z,30.58
2019-04-03T14:18:07.783Z,30.90
2019-04-03T14:20:41.303Z,30.31
2019-04-03T14:23:12.518Z,30.08
2019-04-03T14:25:44.298Z,29.02
2019-04-03T14:28:15.539Z,29.51
2019-04-03T14:30:47.521Z,30.46
2019-04-03T14:33:20.681Z,31.29
2019-04-03T14:35:54.166Z,31.21
2019-04-03T14:38:28.593Z,31.11
2019-04-03T14:41:08.591Z,30.71
2019-04-03T14:43:40.613Z,30.48
2019-04-03T14:46:17.287Z,30.29
2019-04-03T14:48:48.795Z,29.02
2019-04-03T14:51:21.493Z,28.95
2019-04-03T14:53:54.569Z,29.37
2019-04-03T14:56:26.196Z,29.07
2019-04-03T14:58:58.899Z,28.80
2019-04-03T15:01:30.950Z,28.84
2019-04-03T15:04:02.323Z,28.54
2019-04-03T15:07:01.724Z,29.65
2019-04-03T15:09:39.992Z,29.13
2019-04-03T15:12:12.550Z,29.64
2019-04-03T15:14:44.342Z,30.00
2019-04-03T15:17:16.030Z,31.25
2019-04-03T15:19:49.289Z,30.89
2019-04-03T15:22:21.564Z,30.94
2019-04-03T15:24:52.824Z,30.16
2019-04-03T15:27:25.571Z,30.92
2019-04-03T15:30:00.041Z,31.36
2019-04-03T15:32:32.047Z,31.97
2019-04-03T15:35:04.226Z,31.80
2019-04-03T15:37:36.164Z,32.52
2019-04-03T15:40:08.028Z,32.46
2019-04-03T15:42:41.413Z,33.35
2019-04-03T15:45:13.531Z,33.88
2019-04-03T15:47:47.250Z,33.98
2019-04-03T15:50:19.058Z,33.55
2019-04-03T15:52:50.800Z,34.08
2019-04-03T15:55:24.762Z,34.33
2019-04-03T15:57:56.935Z,34.22
2019-04-03T16:00:28.462Z,33.29
2019-04-03T16:03:00.328Z,33.38
2019-04-03T16:05:35.733Z,33.82
2019-04-03T16:08:05.201Z,35.01
2019-04-03T16:10:37.219Z,35.63
2019-04-03T16:13:09.339Z,34.94
2019-04-03T16:15:40.930Z,37.80
2019-04-03T16:18:13.702Z,38.92
2019-04-03T16:20:49.194Z,39.46
2019-04-03T16:23:48.385Z,39.87
2019-04-03T16:26:29.663Z,41.19
2019-04-03T16:29:09.361Z,41.19
2019-04-03T16:31:37.427Z,40.54
2019-04-03T16:34:12.270Z,40.70
2019-04-03T16:36:49.702Z,40.98
2019-04-03T16:39:25.037Z,40.98
2019-04-03T16:41:57.369Z,41.03
2019-04-03T16:44:28.814Z,41.17
2019-04-03T16:47:08.584Z,41.83
2019-04-03T16:56:15.983Z,41.96
2019-04-03T16:59:00.673Z,42.10
2019-04-03T17:01:59.511Z,41.48
2019-04-03T17:05:45.968Z,41.48
2019-04-03T17:08:30.656Z,41.82
2019-04-03T17:11:31.574Z,42.06
2019-04-03T17:14:23.656Z,41.85
2019-04-03T17:17:08.852Z,41.95
2019-04-03T17:19:54.330Z,41.78
2019-04-03T17:23:15.801Z,41.78
2019-04-03T17:25:44.168Z,41.53
2019-04-03T17:28:18.343Z,41.38
2019-04-03T17:30:59.958Z,41.38
2019-04-03T17:33:54.610Z,41.46
2019-04-03T17:36:30.435Z,41.24
2019-04-03T17:39:20.657Z,41.25
2019-04-03T17:42:09.922Z,41.30
2019-04-03T17:44:50.982Z,41.83
2019-04-03T17:47:27.016Z,40.65
2019-04-03T17:50:08.381Z,40.35
2019-04-03T17:52:43.655Z,40.65
2019-04-03T17:55:17.803Z,40.82
2019-04-03T17:58:06.649Z,39.08
2019-04-03T18:00:39.970Z,40.63
2019-04-03T18:03:12.455Z,40.30
2019-04-03T18:05:45.538Z,40.57
2019-04-03T18:08:16.871Z,40.42
2019-04-03T18:10:48.235Z,40.57
2019-04-03T18:13:24.612Z,40.85
2019-04-03T18:15:58.647Z,41.94
2019-04-03T18:18:29.857Z,41.75
2019-04-03T18:21:01.051Z,41.83
2019-04-03T18:23:32.295Z,41.96
2019-04-03T18:26:05.724Z,42.03
2019-04-03T18:28:37.004Z,42.14
2019-04-03T18:31:08.258Z,42.27
2019-04-03T18:33:39.549Z,42.49
2019-04-03T18:36:11.861Z,43.22
2019-04-03T18:38:43.129Z,43.56
2019-04-03T18:41:16.891Z,43.03
2019-04-03T18:43:54.108Z,43.09
2019-04-03T18:46:31.969Z,43.13
2019-04-03T18:49:01.039Z,43.51
2019-04-03T18:51:29.003Z,43.52
2019-04-03T18:54:01.330Z,43.98
2019-04-03T18:56:32.714Z,43.78
2019-04-03T18:59:04.112Z,43.62
2019-04-03T19:01:38.058Z,43.80
2019-04-03T19:04:10.503Z,43.85
2019-04-03T19:06:42.949Z,44.42
2019-04-03T19:09:15.401Z,44.03
2019-04-03T19:11:46.727Z,44.16
2019-04-03T19:14:27.006Z,43.79
2019-04-03T19:16:54.435Z,44.69
2019-04-03T19:19:25.508Z,44.08
2019-04-03T19:21:56.800Z,43.82
2019-04-03T19:24:29.227Z,44.87
2019-04-03T19:27:02.167Z,44.11
2019-04-03T19:29:35.494Z,43.68
2019-04-03T19:32:06.874Z,43.57
2019-04-03T19:34:38.296Z,43.82
2019-04-03T19:37:11.191Z,44.29
2019-04-03T19:39:43.772Z,44.44
2019-04-03T19:42:16.118Z,44.51
2019-04-03T19:44:49.173Z,45.20
2019-04-03T19:47:25.154Z,45.67
2019-04-03T19:50:00.871Z,45.24
2019-04-03T19:52:32.361Z,44.86
2019-04-03T19:55:06.458Z,44.45
2019-04-03T19:57:40.596Z,44.59
2019-04-03T20:00:11.992Z,44.76
2019-04-03T20:02:43.703Z,44.91
2019-04-03T20:05:18.567Z,45.45
2019-04-03T20:07:53.298Z,44.95
2019-04-03T20:10:24.653Z,45.51
2019-04-03T20:12:56.268Z,46.03
2019-04-03T20:15:27.679Z,46.54
2019-04-03T20:17:59.003Z,46.93
2019-04-03T20:20:33.378Z,47.18
2019-04-03T20:23:04.197Z,47.62
2019-04-03T20:25:36.991Z,47.50
2019-04-03T20:28:08.426Z,47.86
2019-04-03T20:30:39.823Z,48.40
2019-04-03T20:33:12.252Z,48.58
2019-04-03T20:35:44.621Z,48.67
2019-04-03T20:38:19.042Z,48.83
2019-04-03T20:40:56.465Z,48.86
2019-04-03T20:43:28.772Z,48.84
2019-04-03T20:46:00.199Z,48.90
2019-04-03T20:48:31.412Z,48.94
2019-04-03T20:51:02.699Z,49.04
2019-04-03T20:53:34.179Z,48.97
2019-04-03T20:56:05.335Z,49.07
2019-04-03T20:58:39.938Z,48.92
2019-04-03T21:01:09.435Z,49.16
2019-04-03T21:03:41.834Z,49.55
2019-04-03T21:06:13.356Z,49.50
2019-04-03T21:08:44.569Z,49.41
2019-04-03T21:11:20.022Z,49.61
2019-04-03T21:13:51.247Z,49.84
2019-04-03T21:16:32.813Z,49.74
2019-04-03T21:18:55.388Z,49.84
2019-04-03T21:21:27.606Z,49.99
2019-04-03T21:23:58.804Z,49.87
2019-04-03T21:26:30.183Z,49.70
2019-04-03T21:29:05.408Z,49.64
2019-04-03T21:31:36.870Z,49.61
2019-04-03T21:34:08.070Z,49.65
2019-04-03T21:36:39.442Z,49.37
2019-04-03T21:39:12.618Z,49.13
2019-04-03T21:41:43.525Z,49.26
2019-04-03T21:44:14.706Z,49.41
2019-04-03T21:46:45.958Z,49.54
2019-04-03T21:49:17.451Z,49.12
2019-04-03T21:51:49.954Z,49.16
2019-04-03T21:54:21.851Z,49.26
2019-04-03T21:56:53.365Z,49.29
2019-04-03T21:59:24.632Z,49.29
2019-04-03T22:01:55.890Z,49.46
2019-04-03T22:04:27.095Z,49.42
2019-04-03T22:06:59.140Z,49.54
2019-04-03T22:09:31.323Z,49.81
2019-04-03T22:12:05.665Z,49.96
2019-04-03T22:14:36.525Z,49.99
2019-04-03T22:17:09.185Z,50.06
2019-04-03T22:19:40.301Z,50.23
2019-04-03T22:22:11.520Z,50.30
2019-04-03T22:24:42.912Z,50.38
2019-04-03T22:27:14.095Z,50.47
2019-04-03T22:29:46.195Z,50.90
2019-04-03T22:32:17.418Z,51.25
2019-04-03T22:34:48.598Z,51.37
2019-04-03T22:37:19.699Z,51.63
2019-04-03T22:39:50.884Z,51.80
2019-04-03T22:42:22.062Z,51.91
2019-04-03T22:44:53.291Z,52.05
2019-04-03T22:47:25.198Z,52.31
2019-04-03T22:49:56.939Z,52.39
2019-04-03T22:52:28.007Z,52.52
2019-04-03T22:54:59.183Z,52.54
2019-04-03T22:57:30.499Z,52.33
2019-04-03T23:00:04.258Z,52.28
2019-04-03T23:02:36.486Z,52.11
2019-04-03T23:05:08.804Z,51.63
2019-04-03T23:07:40.026Z,51.60
2019-04-03T23:10:11.290Z,51.76
2019-04-03T23:12:42.479Z,51.44
2019-04-03T23:15:13.708Z,51.19
2019-04-03T23:17:45.436Z,51.39
2019-04-03T23:20:16.865Z,51.33
2019-04-03T23:22:48.207Z,50.46
2019-04-03T23:25:19.435Z,50.75
2019-04-03T23:27:50.616Z,50.78
2019-04-03T23:30:22.069Z,50.48
2019-04-03T23:32:53.421Z,50.58
2019-04-03T23:35:26.632Z,50.81
2019-04-03T23:37:57.837Z,50.76
2019-04-03T23:40:29.019Z,50.70
2019-04-03T23:43:00.247Z,50.73
2019-04-03T23:45:32.598Z,50.47
2019-04-03T23:48:03.912Z,50.48
2019-04-03T23:50:36.279Z,50.93
2019-04-03T23:53:07.878Z,50.88
2019-04-03T23:55:40.262Z,50.71
2019-04-03T23:58:11.557Z,50.75
